sensor_id;sensor_type;location;lat;lon;timestamp;pressure;altitude;pressure_sealevel;temperature;humidity
39593;BME280;25286;48.870;9.084;2022-08-24T00:00:04;98102.88;;;21.17;54.47
39593;BME280;25286;48.870;9.084;2022-08-24T00:02:31;98103.59;;;21.23;54.46
39593;BME280;25286;48.870;9.084;2022-08-24T00:04:57;98107.00;;;21.20;54.58
39593;BME280;25286;48.870;9.084;2022-08-24T00:07:22;98105.56;;;21.09;54.30
39593;BME280;25286;48.870;9.084;2022-08-24T00:09:48;98105.13;;;21.01;54.57
39593;BME280;25286;48.870;9.084;2022-08-24T00:12:14;98113.84;;;21.00;54.71
39593;BME280;25286;48.870;9.084;2022-08-24T00:14:40;98120.03;;;20.97;54.26
39593;BME280;25286;48.870;9.084;2022-08-24T00:17:07;98123.53;;;20.89;54.45
39593;BME280;25286;48.870;9.084;2022-08-24T00:19:33;98117.09;;;20.61;54.99
39593;BME280;25286;48.870;9.084;2022-08-24T00:21:58;98121.47;;;20.67;54.93
39593;BME280;25286;48.870;9.084;2022-08-24T00:24:25;98120.81;;;20.70;54.95
39593;BME280;25286;48.870;9.084;2022-08-24T00:26:51;98121.84;;;20.60;55.32
39593;BME280;25286;48.870;9.084;2022-08-24T00:29:19;98111.53;;;20.74;54.96
39593;BME280;25286;48.870;9.084;2022-08-24T00:31:46;98114.97;;;20.71;55.27
39593;BME280;25286;48.870;9.084;2022-08-24T00:34:12;98113.38;;;20.65;55.57
39593;BME280;25286;48.870;9.084;2022-08-24T00:36:39;98115.34;;;20.32;56.59
39593;BME280;25286;48.870;9.084;2022-08-24T00:39:06;98106.31;;;20.40;56.62
39593;BME280;25286;48.870;9.084;2022-08-24T00:41:33;98103.75;;;20.25;56.85
39593;BME280;25286;48.870;9.084;2022-08-24T00:44:01;98107.94;;;20.41;56.64
39593;BME280;25286;48.870;9.084;2022-08-24T00:49:08;98108.66;;;20.79;55.35
39593;BME280;25286;48.870;9.084;2022-08-24T00:51:39;98103.50;;;20.87;55.00
39593;BME280;25286;48.870;9.084;2022-08-24T00:54:11;98107.00;;;20.78;55.13
39593;BME280;25286;48.870;9.084;2022-08-24T00:56:45;98104.28;;;20.60;55.38
39593;BME280;25286;48.870;9.084;2022-08-24T00:59:16;98105.13;;;20.60;55.42
39593;BME280;25286;48.870;9.084;2022-08-24T01:01:43;98107.28;;;20.49;55.56
39593;BME280;25286;48.870;9.084;2022-08-24T01:04:12;98110.06;;;20.49;55.84
39593;BME280;25286;48.870;9.084;2022-08-24T01:06:40;98107.59;;;20.62;55.65
39593;BME280;25286;48.870;9.084;2022-08-24T01:09:06;98114.19;;;20.52;55.91
39593;BME280;25286;48.870;9.084;2022-08-24T01:11:31;98107.94;;;20.41;56.02
39593;BME280;25286;48.870;9.084;2022-08-24T01:13:58;98105.88;;;20.47;55.76
39593;BME280;25286;48.870;9.084;2022-08-24T01:16:24;98100.06;;;20.29;56.37
39593;BME280;25286;48.870;9.084;2022-08-24T01:19:37;98109.06;;;20.26;56.30
39593;BME280;25286;48.870;9.084;2022-08-24T01:25:10;98105.50;;;19.88;57.77
39593;BME280;25286;48.870;9.084;2022-08-24T01:27:35;98119.38;;;19.93;57.58
39593;BME280;25286;48.870;9.084;2022-08-24T01:30:06;98113.03;;;19.88;57.94
39593;BME280;25286;48.870;9.084;2022-08-24T01:32:33;98120.25;;;19.70;58.75
39593;BME280;25286;48.870;9.084;2022-08-24T01:34:59;98117.47;;;19.89;58.46
39593;BME280;25286;48.870;9.084;2022-08-24T01:37:25;98118.31;;;19.89;59.03
39593;BME280;25286;48.870;9.084;2022-08-24T01:39:53;98113.03;;;19.88;59.41
39593;BME280;25286;48.870;9.084;2022-08-24T01:42:19;98108.59;;;19.87;59.73
39593;BME280;25286;48.870;9.084;2022-08-24T01:44:46;98116.72;;;19.83;59.97
39593;BME280;25286;48.870;9.084;2022-08-24T01:47:13;98117.84;;;19.82;60.37
39593;BME280;25286;48.870;9.084;2022-08-24T01:49:47;98119.00;;;19.81;60.54
39593;BME280;25286;48.870;9.084;2022-08-24T01:52:16;98121.78;;;19.81;60.56
39593;BME280;25286;48.870;9.084;2022-08-24T01:54:43;98125.81;;;19.70;61.11
39593;BME280;25286;48.870;9.084;2022-08-24T01:57:08;98133.44;;;19.64;61.13
39593;BME280;25286;48.870;9.084;2022-08-24T01:59:34;98135.34;;;19.45;61.97
39593;BME280;25286;48.870;9.084;2022-08-24T02:02:06;98131.97;;;19.29;63.03
39593;BME280;25286;48.870;9.084;2022-08-24T02:04:34;98122.63;;;19.39;62.82
39593;BME280;25286;48.870;9.084;2022-08-24T02:07:00;98121.41;;;19.26;63.59
39593;BME280;25286;48.870;9.084;2022-08-24T02:09:25;98127.88;;;19.21;64.05
39593;BME280;25286;48.870;9.084;2022-08-24T02:11:52;98122.53;;;19.01;65.61
39593;BME280;25286;48.870;9.084;2022-08-24T02:14:19;98130.66;;;19.21;65.21
39593;BME280;25286;48.870;9.084;2022-08-24T02:16:45;98133.94;;;19.23;65.33
39593;BME280;25286;48.870;9.084;2022-08-24T02:19:11;98132.72;;;19.35;65.19
39593;BME280;25286;48.870;9.084;2022-08-24T02:21:37;98130.53;;;19.08;66.09
39593;BME280;25286;48.870;9.084;2022-08-24T02:24:03;98134.47;;;19.07;66.27
39593;BME280;25286;48.870;9.084;2022-08-24T02:26:29;98134.31;;;19.17;65.99
39593;BME280;25286;48.870;9.084;2022-08-24T02:28:54;98139.31;;;19.20;65.74
39593;BME280;25286;48.870;9.084;2022-08-24T02:31:20;98135.03;;;19.03;66.47
39593;BME280;25286;48.870;9.084;2022-08-24T02:33:46;98138.06;;;19.07;66.68
39593;BME280;25286;48.870;9.084;2022-08-24T02:36:13;98132.78;;;19.05;66.79
39593;BME280;25286;48.870;9.084;2022-08-24T02:38:38;98131.13;;;19.04;67.06
39593;BME280;25286;48.870;9.084;2022-08-24T02:41:04;98132.84;;;19.00;67.63
39593;BME280;25286;48.870;9.084;2022-08-24T02:43:30;98132.72;;;18.87;67.73
39593;BME280;25286;48.870;9.084;2022-08-24T02:45:56;98131.44;;;19.03;67.74
39593;BME280;25286;48.870;9.084;2022-08-24T02:48:22;98134.97;;;19.09;67.30
39593;BME280;25286;48.870;9.084;2022-08-24T02:50:49;98128.28;;;19.10;67.15
39593;BME280;25286;48.870;9.084;2022-08-24T02:53:16;98134.91;;;19.14;66.81
39593;BME280;25286;48.870;9.084;2022-08-24T02:55:43;98132.09;;;18.95;67.42
39593;BME280;25286;48.870;9.084;2022-08-24T02:58:10;98126.81;;;18.93;67.58
39593;BME280;25286;48.870;9.084;2022-08-24T03:00:38;98132.31;;;18.45;68.95
39593;BME280;25286;48.870;9.084;2022-08-24T03:03:05;98123.00;;;18.60;69.02
39593;BME280;25286;48.870;9.084;2022-08-24T03:05:32;98127.59;;;18.75;68.43
39593;BME280;25286;48.870;9.084;2022-08-24T03:07:58;98129.72;;;18.83;68.05
39593;BME280;25286;48.870;9.084;2022-08-24T03:10:23;98129.75;;;18.78;68.29
39593;BME280;25286;48.870;9.084;2022-08-24T03:12:50;98118.88;;;18.82;67.82
39593;BME280;25286;48.870;9.084;2022-08-24T03:15:16;98121.25;;;18.64;68.25
39593;BME280;25286;48.870;9.084;2022-08-24T03:17:42;98127.72;;;18.60;68.91
39593;BME280;25286;48.870;9.084;2022-08-24T03:20:12;98122.28;;;18.78;68.28
39593;BME280;25286;48.870;9.084;2022-08-24T03:22:38;98118.81;;;18.87;67.50
39593;BME280;25286;48.870;9.084;2022-08-24T03:25:04;98112.81;;;18.79;67.66
39593;BME280;25286;48.870;9.084;2022-08-24T03:27:30;98121.94;;;18.56;68.17
39593;BME280;25286;48.870;9.084;2022-08-24T03:29:56;98120.66;;;18.43;68.12
39593;BME280;25286;48.870;9.084;2022-08-24T03:32:22;98125.25;;;18.29;69.18
39593;BME280;25286;48.870;9.084;2022-08-24T03:34:47;98116.66;;;18.25;69.24
39593;BME280;25286;48.870;9.084;2022-08-24T03:37:13;98117.34;;;18.41;69.35
39593;BME280;25286;48.870;9.084;2022-08-24T03:39:40;98111.34;;;18.58;68.35
39593;BME280;25286;48.870;9.084;2022-08-24T03:42:06;98120.59;;;18.77;67.58
39593;BME280;25286;48.870;9.084;2022-08-24T03:44:32;98127.44;;;18.61;67.92
39593;BME280;25286;48.870;9.084;2022-08-24T03:46:57;98117.38;;;18.70;67.69
39593;BME280;25286;48.870;9.084;2022-08-24T03:49:23;98119.84;;;18.72;67.57
39593;BME280;25286;48.870;9.084;2022-08-24T03:51:49;98120.09;;;18.46;68.22
39593;BME280;25286;48.870;9.084;2022-08-24T03:54:15;98119.75;;;18.19;69.43
39593;BME280;25286;48.870;9.084;2022-08-24T03:56:40;98113.00;;;18.30;69.15
39593;BME280;25286;48.870;9.084;2022-08-24T03:59:07;98120.66;;;18.43;68.21
39593;BME280;25286;48.870;9.084;2022-08-24T04:01:34;98123.69;;;18.47;67.87
39593;BME280;25286;48.870;9.084;2022-08-24T04:03:59;98128.75;;;18.69;66.55
39593;BME280;25286;48.870;9.084;2022-08-24T04:06:25;98129.66;;;18.59;66.04
39593;BME280;25286;48.870;9.084;2022-08-24T04:08:51;98119.38;;;18.60;66.25
39593;BME280;25286;48.870;9.084;2022-08-24T04:11:20;98126.66;;;18.56;65.96
39593;BME280;25286;48.870;9.084;2022-08-24T04:13:47;98127.94;;;18.63;65.98
39593;BME280;25286;48.870;9.084;2022-08-24T04:16:18;98133.25;;;18.60;66.11
39593;BME280;25286;48.870;9.084;2022-08-24T04:18:45;98129.78;;;18.49;66.20
39593;BME280;25286;48.870;9.084;2022-08-24T04:21:19;98125.72;;;18.36;66.88
39593;BME280;25286;48.870;9.084;2022-08-24T04:23:46;98130.41;;;18.41;67.03
39593;BME280;25286;48.870;9.084;2022-08-24T04:26:12;98121.88;;;18.32;66.94
39593;BME280;25286;48.870;9.084;2022-08-24T04:28:38;98134.56;;;18.09;67.66
39593;BME280;25286;48.870;9.084;2022-08-24T04:31:05;98136.34;;;17.95;68.07
39593;BME280;25286;48.870;9.084;2022-08-24T04:33:31;98137.19;;;17.95;68.02
39593;BME280;25286;48.870;9.084;2022-08-24T04:35:57;98136.19;;;17.81;67.82
39593;BME280;25286;48.870;9.084;2022-08-24T04:38:23;98140.88;;;17.86;67.29
39593;BME280;25286;48.870;9.084;2022-08-24T04:40:49;98142.72;;;17.95;66.41
39593;BME280;25286;48.870;9.084;2022-08-24T04:43:16;98140.22;;;17.99;66.22
39593;BME280;25286;48.870;9.084;2022-08-24T04:45:43;98143.19;;;18.08;65.93
39593;BME280;25286;48.870;9.084;2022-08-24T04:48:10;98148.78;;;18.02;65.85
39593;BME280;25286;48.870;9.084;2022-08-24T04:50:37;98153.28;;;17.98;66.04
39593;BME280;25286;48.870;9.084;2022-08-24T04:53:03;98156.59;;;17.95;65.90
39593;BME280;25286;48.870;9.084;2022-08-24T04:55:30;98158.28;;;17.96;66.24
39593;BME280;25286;48.870;9.084;2022-08-24T04:57:56;98157.72;;;17.94;66.18
39593;BME280;25286;48.870;9.084;2022-08-24T05:00:21;98162.72;;;17.97;66.22
39593;BME280;25286;48.870;9.084;2022-08-24T05:02:47;98159.34;;;18.06;66.30
39593;BME280;25286;48.870;9.084;2022-08-24T05:05:13;98169.22;;;18.17;66.14
39593;BME280;25286;48.870;9.084;2022-08-24T05:07:39;98166.84;;;18.00;67.27
39593;BME280;25286;48.870;9.084;2022-08-24T05:10:06;98167.53;;;18.21;67.14
39593;BME280;25286;48.870;9.084;2022-08-24T05:12:32;98167.28;;;18.17;67.31
39593;BME280;25286;48.870;9.084;2022-08-24T05:14:58;98170.63;;;18.14;67.63
39593;BME280;25286;48.870;9.084;2022-08-24T05:17:25;98174.47;;;18.18;67.22
39593;BME280;25286;48.870;9.084;2022-08-24T05:19:51;98175.91;;;18.16;67.66
39593;BME280;25286;48.870;9.084;2022-08-24T05:22:17;98176.31;;;18.33;66.81
39593;BME280;25286;48.870;9.084;2022-08-24T05:24:43;98173.66;;;18.52;66.05
39593;BME280;25286;48.870;9.084;2022-08-24T05:27:09;98173.25;;;18.64;65.28
39593;BME280;25286;48.870;9.084;2022-08-24T05:29:34;98171.47;;;18.78;65.11
39593;BME280;25286;48.870;9.084;2022-08-24T05:32:00;98173.97;;;18.79;64.93
39593;BME280;25286;48.870;9.084;2022-08-24T05:34:26;98171.31;;;18.93;64.39
39593;BME280;25286;48.870;9.084;2022-08-24T05:36:52;98170.88;;;19.05;63.40
39593;BME280;25286;48.870;9.084;2022-08-24T05:39:18;98174.47;;;19.11;63.58
39593;BME280;25286;48.870;9.084;2022-08-24T05:41:44;98169.59;;;19.21;63.02
39593;BME280;25286;48.870;9.084;2022-08-24T05:44:15;98172.00;;;19.28;62.56
39593;BME280;25286;48.870;9.084;2022-08-24T05:46:41;98167.88;;;19.25;63.05
39593;BME280;25286;48.870;9.084;2022-08-24T05:49:07;98171.94;;;19.33;62.63
39593;BME280;25286;48.870;9.084;2022-08-24T05:51:34;98181.44;;;19.51;61.83
39593;BME280;25286;48.870;9.084;2022-08-24T05:54:00;98175.59;;;19.52;61.42
39593;BME280;25286;48.870;9.084;2022-08-24T05:56:28;98177.31;;;19.48;62.22
39593;BME280;25286;48.870;9.084;2022-08-24T05:58:53;98180.25;;;19.38;62.43
39593;BME280;25286;48.870;9.084;2022-08-24T06:01:24;98187.47;;;19.39;62.89
39593;BME280;25286;48.870;9.084;2022-08-24T06:03:51;98185.28;;;19.55;61.77
39593;BME280;25286;48.870;9.084;2022-08-24T06:06:19;98181.47;;;19.75;61.41
39593;BME280;25286;48.870;9.084;2022-08-24T06:08:46;98192.44;;;19.85;60.71
39593;BME280;25286;48.870;9.084;2022-08-24T06:11:27;98194.91;;;19.87;61.20
39593;BME280;25286;48.870;9.084;2022-08-24T06:13:56;98198.59;;;20.01;61.26
39593;BME280;25286;48.870;9.084;2022-08-24T06:16:23;98197.84;;;19.95;61.66
39593;BME280;25286;48.870;9.084;2022-08-24T06:18:50;98193.69;;;19.93;61.74
39593;BME280;25286;48.870;9.084;2022-08-24T06:21:27;98196.50;;;20.12;61.67
39593;BME280;25286;48.870;9.084;2022-08-24T06:23:56;98190.78;;;19.84;63.05
39593;BME280;25286;48.870;9.084;2022-08-24T06:26:22;98194.41;;;20.03;62.54
39593;BME280;25286;48.870;9.084;2022-08-24T06:29:07;98194.41;;;20.03;62.92
39593;BME280;25286;48.870;9.084;2022-08-24T06:31:42;98187.91;;;20.27;61.86
39593;BME280;25286;48.870;9.084;2022-08-24T06:34:09;98191.41;;;20.51;61.27
39593;BME280;25286;48.870;9.084;2022-08-24T06:36:35;98189.16;;;20.53;61.04
39593;BME280;25286;48.870;9.084;2022-08-24T06:39:01;98194.66;;;20.40;61.91
39593;BME280;25286;48.870;9.084;2022-08-24T06:41:26;98189.25;;;20.48;61.86
39593;BME280;25286;48.870;9.084;2022-08-24T06:43:52;98192.69;;;20.59;61.50
39593;BME280;25286;48.870;9.084;2022-08-24T06:46:18;98194.66;;;20.59;62.13
39593;BME280;25286;48.870;9.084;2022-08-24T06:48:44;98193.22;;;20.75;62.27
39593;BME280;25286;48.870;9.084;2022-08-24T06:51:15;98195.13;;;20.93;61.89
39593;BME280;25286;48.870;9.084;2022-08-24T06:53:42;98201.44;;;20.99;61.61
39593;BME280;25286;48.870;9.084;2022-08-24T06:56:08;98195.75;;;20.90;62.83
39593;BME280;25286;48.870;9.084;2022-08-24T06:58:35;98193.13;;;20.80;63.87
39593;BME280;25286;48.870;9.084;2022-08-24T07:01:12;98201.03;;;21.19;62.67
39593;BME280;25286;48.870;9.084;2022-08-24T07:03:38;98202.41;;;21.22;62.35
39593;BME280;25286;48.870;9.084;2022-08-24T07:06:05;98199.19;;;21.28;62.35
39593;BME280;25286;48.870;9.084;2022-08-24T07:08:32;98199.53;;;21.41;62.11
39593;BME280;25286;48.870;9.084;2022-08-24T07:10:58;98205.22;;;21.49;61.79
39593;BME280;25286;48.870;9.084;2022-08-24T07:13:24;98208.13;;;21.44;62.69
39593;BME280;25286;48.870;9.084;2022-08-24T07:15:51;98210.97;;;21.67;62.50
39593;BME280;25286;48.870;9.084;2022-08-24T07:18:18;98209.31;;;21.66;62.35
39593;BME280;25286;48.870;9.084;2022-08-24T07:20:44;98203.13;;;21.69;62.14
39593;BME280;25286;48.870;9.084;2022-08-24T07:23:10;98218.00;;;21.78;61.93
39593;BME280;25286;48.870;9.084;2022-08-24T07:25:43;98213.03;;;21.75;62.10
39593;BME280;25286;48.870;9.084;2022-08-24T07:28:09;98209.69;;;22.00;61.41
39593;BME280;25286;48.870;9.084;2022-08-24T07:30:36;98215.56;;;21.99;60.80
39593;BME280;25286;48.870;9.084;2022-08-24T07:33:03;98217.25;;;22.14;60.73
39593;BME280;25286;48.870;9.084;2022-08-24T07:35:29;98214.69;;;22.26;60.92
39593;BME280;25286;48.870;9.084;2022-08-24T07:37:57;98214.34;;;22.41;60.65
39593;BME280;25286;48.870;9.084;2022-08-24T07:40:24;98221.19;;;22.57;59.71
39593;BME280;25286;48.870;9.084;2022-08-24T07:42:51;98213.19;;;22.65;59.18
39593;BME280;25286;48.870;9.084;2022-08-24T07:45:18;98211.56;;;22.64;59.15
39593;BME280;25286;48.870;9.084;2022-08-24T07:47:44;98222.69;;;22.86;58.48
39593;BME280;25286;48.870;9.084;2022-08-24T07:50:13;98216.50;;;22.89;57.50
39593;BME280;25286;48.870;9.084;2022-08-24T07:52:39;98219.75;;;23.05;56.47
39593;BME280;25286;48.870;9.084;2022-08-24T07:55:06;98223.41;;;23.14;54.83
39593;BME280;25286;48.870;9.084;2022-08-24T07:57:32;98223.94;;;23.25;54.36
39593;BME280;25286;48.870;9.084;2022-08-24T07:59:58;98217.88;;;23.31;53.02
39593;BME280;25286;48.870;9.084;2022-08-24T08:02:25;98225.31;;;23.45;51.42
39593;BME280;25286;48.870;9.084;2022-08-24T08:04:53;98227.81;;;23.46;49.61
39593;BME280;25286;48.870;9.084;2022-08-24T08:07:19;98226.63;;;23.39;50.80
39593;BME280;25286;48.870;9.084;2022-08-24T08:09:45;98230.75;;;23.41;49.90
39593;BME280;25286;48.870;9.084;2022-08-24T08:12:11;98229.81;;;23.54;49.21
39593;BME280;25286;48.870;9.084;2022-08-24T08:14:37;98232.53;;;23.68;49.10
39593;BME280;25286;48.870;9.084;2022-08-24T08:17:03;98228.19;;;23.62;49.00
39593;BME280;25286;48.870;9.084;2022-08-24T08:19:29;98226.78;;;23.65;48.63
39593;BME280;25286;48.870;9.084;2022-08-24T08:21:55;98228.28;;;23.79;47.83
39593;BME280;25286;48.870;9.084;2022-08-24T08:24:40;98225.13;;;23.72;46.92
39593;BME280;25286;48.870;9.084;2022-08-24T08:27:09;98228.63;;;23.87;47.08
39593;BME280;25286;48.870;9.084;2022-08-24T08:29:36;98219.22;;;23.74;46.81
39593;BME280;25286;48.870;9.084;2022-08-24T08:32:04;98237.69;;;23.83;46.85
39593;BME280;25286;48.870;9.084;2022-08-24T08:34:30;98238.97;;;23.77;46.52
39593;BME280;25286;48.870;9.084;2022-08-24T08:36:56;98229.16;;;24.06;46.23
39593;BME280;25286;48.870;9.084;2022-08-24T08:39:22;98215.13;;;23.97;46.11
39593;BME280;25286;48.870;9.084;2022-08-24T09:13:08;98221.13;;;24.65;44.39
39593;BME280;25286;48.870;9.084;2022-08-24T09:19:20;98218.75;;;24.93;44.00
39593;BME280;25286;48.870;9.084;2022-08-24T09:27:26;98212.97;;;24.98;43.69
39593;BME280;25286;48.870;9.084;2022-08-24T09:32:46;98201.75;;;24.90;43.92
39593;BME280;25286;48.870;9.084;2022-08-24T09:35:17;98206.81;;;25.14;43.48
39593;BME280;25286;48.870;9.084;2022-08-24T10:06:20;98199.34;;;25.26;43.50
39593;BME280;25286;48.870;9.084;2022-08-24T10:09:02;98191.22;;;25.33;43.24
39593;BME280;25286;48.870;9.084;2022-08-24T10:31:38;98173.75;;;25.87;43.59
39593;BME280;25286;48.870;9.084;2022-08-24T10:36:53;98169.84;;;25.79;43.58
39593;BME280;25286;48.870;9.084;2022-08-24T10:42:19;98165.13;;;25.92;43.29
39593;BME280;25286;48.870;9.084;2022-08-24T10:45:15;98166.44;;;25.95;43.30
39593;BME280;25286;48.870;9.084;2022-08-24T10:48:03;98157.38;;;26.31;43.48
39593;BME280;25286;48.870;9.084;2022-08-24T10:53:23;98160.31;;;26.55;43.10
39593;BME280;25286;48.870;9.084;2022-08-24T10:55:59;98155.03;;;26.33;41.65
39593;BME280;25286;48.870;9.084;2022-08-24T11:01:28;98156.94;;;26.41;41.40
39593;BME280;25286;48.870;9.084;2022-08-24T11:04:10;98155.38;;;26.52;40.98
39593;BME280;25286;48.870;9.084;2022-08-24T11:06:41;98147.34;;;26.63;41.11
39593;BME280;25286;48.870;9.084;2022-08-24T11:09:13;98149.13;;;26.80;40.34
39593;BME280;25286;48.870;9.084;2022-08-24T11:11:46;98151.72;;;26.73;40.85
39593;BME280;25286;48.870;9.084;2022-08-24T11:14:26;98153.06;;;27.00;40.11
39593;BME280;25286;48.870;9.084;2022-08-24T11:16:54;98141.03;;;27.24;39.28
39593;BME280;25286;48.870;9.084;2022-08-24T11:19:37;98143.72;;;27.57;39.11
39593;BME280;25286;48.870;9.084;2022-08-24T11:22:05;98146.44;;;27.29;38.75
39593;BME280;25286;48.870;9.084;2022-08-24T11:24:45;98148.28;;;27.61;38.42
39593;BME280;25286;48.870;9.084;2022-08-24T11:32:40;98136.09;;;27.45;38.23
39593;BME280;25286;48.870;9.084;2022-08-24T11:37:35;98133.03;;;27.26;38.36
39593;BME280;25286;48.870;9.084;2022-08-24T11:40:03;98125.41;;;27.39;37.24
39593;BME280;25286;48.870;9.084;2022-08-24T11:45:31;98126.13;;;27.35;37.33
39593;BME280;25286;48.870;9.084;2022-08-24T11:54:12;98127.19;;;27.19;38.09
39593;BME280;25286;48.870;9.084;2022-08-24T12:02:30;98121.91;;;27.42;37.67
39593;BME280;25286;48.870;9.084;2022-08-24T12:16:29;98118.22;;;27.53;38.64
39593;BME280;25286;48.870;9.084;2022-08-24T12:19:33;98121.75;;;27.62;37.44
39593;BME280;25286;48.870;9.084;2022-08-24T12:22:02;98113.78;;;27.77;38.02
39593;BME280;25286;48.870;9.084;2022-08-24T12:24:53;98118.69;;;27.80;37.59
39593;BME280;25286;48.870;9.084;2022-08-24T12:27:33;98119.03;;;27.66;37.67
39593;BME280;25286;48.870;9.084;2022-08-24T12:32:35;98108.41;;;28.40;36.40
39593;BME280;25286;48.870;9.084;2022-08-24T12:35:08;98108.59;;;28.59;36.49
39593;BME280;25286;48.870;9.084;2022-08-24T12:37:43;98103.44;;;28.49;36.61
39593;BME280;25286;48.870;9.084;2022-08-24T12:40:38;98101.25;;;28.86;35.33
39593;BME280;25286;48.870;9.084;2022-08-24T12:43:18;98116.78;;;28.65;35.59
39593;BME280;25286;48.870;9.084;2022-08-24T12:45:48;98110.03;;;28.97;35.71
39593;BME280;25286;48.870;9.084;2022-08-24T12:54:17;98106.03;;;29.14;35.43
39593;BME280;25286;48.870;9.084;2022-08-24T12:59:36;98103.91;;;28.51;34.37
39593;BME280;25286;48.870;9.084;2022-08-24T13:02:26;98101.91;;;28.52;33.92
39593;BME280;25286;48.870;9.084;2022-08-24T13:04:58;98107.50;;;28.64;33.87
39593;BME280;25286;48.870;9.084;2022-08-24T13:07:38;98109.22;;;28.97;33.37
39593;BME280;25286;48.870;9.084;2022-08-24T13:17:51;98101.53;;;28.97;33.97
39593;BME280;25286;48.870;9.084;2022-08-24T13:20:51;98088.66;;;29.31;33.54
39593;BME280;25286;48.870;9.084;2022-08-24T13:31:11;98083.28;;;29.93;33.66
39593;BME280;25286;48.870;9.084;2022-08-24T13:33:49;98089.16;;;29.69;34.21
39593;BME280;25286;48.870;9.084;2022-08-24T13:42:28;98080.56;;;30.00;34.09
39593;BME280;25286;48.870;9.084;2022-08-24T14:07:22;98072.69;;;30.09;32.84
39593;BME280;25286;48.870;9.084;2022-08-24T14:10:24;98077.50;;;30.25;32.58
39593;BME280;25286;48.870;9.084;2022-08-24T14:13:22;98067.34;;;30.24;32.82
39593;BME280;25286;48.870;9.084;2022-08-24T14:16:12;98062.16;;;30.26;32.24
39593;BME280;25286;48.870;9.084;2022-08-24T14:21:52;98057.97;;;30.39;32.40
39593;BME280;25286;48.870;9.084;2022-08-24T14:24:30;98046.41;;;30.48;32.37
39593;BME280;25286;48.870;9.084;2022-08-24T14:27:34;98053.63;;;30.45;32.63
39593;BME280;25286;48.870;9.084;2022-08-24T14:40:50;98034.81;;;30.76;32.31
39593;BME280;25286;48.870;9.084;2022-08-24T14:43:24;98044.75;;;30.89;32.59
39593;BME280;25286;48.870;9.084;2022-08-24T14:54:40;98036.75;;;30.72;32.33
39593;BME280;25286;48.870;9.084;2022-08-24T15:00:25;98028.94;;;30.88;32.11
39593;BME280;25286;48.870;9.084;2022-08-24T15:03:13;98023.22;;;31.07;31.90
39593;BME280;25286;48.870;9.084;2022-08-24T15:05:59;98029.34;;;31.36;31.41
39593;BME280;25286;48.870;9.084;2022-08-24T15:11:44;98026.16;;;31.14;31.77
39593;BME280;25286;48.870;9.084;2022-08-24T15:13:52;98018.59;;;31.79;31.16
39593;BME280;25286;48.870;9.084;2022-08-24T15:16:23;98019.41;;;31.49;31.42
39593;BME280;25286;48.870;9.084;2022-08-24T15:22:03;98012.78;;;31.95;31.54
39593;BME280;25286;48.870;9.084;2022-08-24T15:27:25;98014.44;;;32.33;31.34
39593;BME280;25286;48.870;9.084;2022-08-24T15:29:55;98012.81;;;32.69;31.19
39593;BME280;25286;48.870;9.084;2022-08-24T15:32:23;98007.53;;;32.68;31.47
39593;BME280;25286;48.870;9.084;2022-08-24T15:34:52;98014.19;;;32.86;31.62
39593;BME280;25286;48.870;9.084;2022-08-24T15:37:45;98010.44;;;33.23;31.37
39593;BME280;25286;48.870;9.084;2022-08-24T15:40:30;98016.75;;;32.98;31.87
39593;BME280;25286;48.870;9.084;2022-08-24T15:42:59;98020.03;;;33.00;31.73
39593;BME280;25286;48.870;9.084;2022-08-24T15:45:28;98009.09;;;33.61;31.44
39593;BME280;25286;48.870;9.084;2022-08-24T15:47:54;98002.03;;;34.06;30.95
39593;BME280;25286;48.870;9.084;2022-08-24T15:50:28;98010.94;;;33.32;30.79
39593;BME280;25286;48.870;9.084;2022-08-24T15:53:47;98004.03;;;34.02;30.38
39593;BME280;25286;48.870;9.084;2022-08-24T15:55:54;98009.16;;;33.68;30.80
39593;BME280;25286;48.870;9.084;2022-08-24T15:58:33;98006.16;;;34.27;31.16
39593;BME280;25286;48.870;9.084;2022-08-24T16:01:22;98012.25;;;34.25;30.78
39593;BME280;25286;48.870;9.084;2022-08-24T16:04:12;98012.00;;;33.72;31.18
39593;BME280;25286;48.870;9.084;2022-08-24T16:06:45;98015.94;;;34.29;31.15
39593;BME280;25286;48.870;9.084;2022-08-24T16:11:48;98014.84;;;34.70;30.70
39593;BME280;25286;48.870;9.084;2022-08-24T16:15:24;98005.09;;;34.99;30.89
39593;BME280;25286;48.870;9.084;2022-08-24T16:17:39;98019.91;;;34.00;31.94
39593;BME280;25286;48.870;9.084;2022-08-24T16:22:57;98021.72;;;32.68;32.28
39593;BME280;25286;48.870;9.084;2022-08-24T16:25:25;98021.78;;;32.75;32.30
39593;BME280;25286;48.870;9.084;2022-08-24T16:35:55;98011.59;;;33.77;32.68
39593;BME280;25286;48.870;9.084;2022-08-24T16:38:21;98021.81;;;33.23;33.94
39593;BME280;25286;48.870;9.084;2022-08-24T16:40:46;98019.25;;;33.07;34.32
39593;BME280;25286;48.870;9.084;2022-08-24T16:43:12;98015.72;;;33.24;33.65
39593;BME280;25286;48.870;9.084;2022-08-24T16:45:38;98017.53;;;32.54;34.89
39593;BME280;25286;48.870;9.084;2022-08-24T16:48:05;98029.72;;;32.21;35.19
39593;BME280;25286;48.870;9.084;2022-08-24T16:50:31;98016.09;;;32.00;35.39
39593;BME280;25286;48.870;9.084;2022-08-24T16:52:56;98022.22;;;32.06;35.51
39593;BME280;25286;48.870;9.084;2022-08-24T16:55:22;98025.44;;;31.44;36.37
39593;BME280;25286;48.870;9.084;2022-08-24T16:57:48;98025.41;;;30.95;36.98
39593;BME280;25286;48.870;9.084;2022-08-24T17:00:16;98032.72;;;30.73;37.84
39593;BME280;25286;48.870;9.084;2022-08-24T17:02:44;98031.38;;;30.67;38.00
39593;BME280;25286;48.870;9.084;2022-08-24T17:05:13;98032.50;;;30.62;38.06
39593;BME280;25286;48.870;9.084;2022-08-24T17:07:38;98030.38;;;31.01;37.36
39593;BME280;25286;48.870;9.084;2022-08-24T17:10:06;98026.59;;;31.17;37.29
39593;BME280;25286;48.870;9.084;2022-08-24T17:12:34;98033.19;;;30.75;38.05
39593;BME280;25286;48.870;9.084;2022-08-24T17:15:05;98036.50;;;31.03;37.79
39593;BME280;25286;48.870;9.084;2022-08-24T17:17:32;98029.78;;;30.69;38.05
39593;BME280;25286;48.870;9.084;2022-08-24T17:19:57;98038.00;;;30.74;38.15